Ethridge, Tennessee
Current Conditions -  °F | °C
As of 5:53 AM on Friday 19 Dec 2014 (Local Time) from KMSL Reporting Station
Overcast Overcast  
Wind Chill: 37°   Ceiling: 3700
Heat Index: 40°   Visibility: 10mi
Dew Point: 32°   Wind: 5mph
Humidity: 73%   Direction: 70°ENE
Pressure: 30.22"   Gusts: NA
Location:  35.32°N, 87.3°W
Report Text: KMSL 191153Z AUTO 07004KT 10SM OVC037 04/00 A3022 RMK AO2 SLP235 T00440000 10056 20044 53005
Loading
Personal Weather Stations






























Interactive Weather Map New forecast layout! Learn more

10-Day Weather Forecast

Advertisements
Track Severe Weather on mobile